Time;durP1;ratioP1;P1;durP2;ratioP2;P2;SDS_P1;SDS_P2;PMS_P1;PMS_P2;Temp;Humidity;BMP_temperature;BMP_pressure;BME280_temperature;BME280_humidity;BME280_pressure;Samples;Min_cycle;Max_cycle;Signal;HPM_P1;HPM_P2
2021/08/10 00:01:34;;;;;;;1.20;1.10;;;;;;;;;;5053790;28;20397;-52
2021/08/10 00:04:00;;;;;;;2.58;1.60;;;;;;;;;;5054370;28;20021;-53
2021/08/10 00:06:26;;;;;;;2.47;1.65;;;;;;;;;;5054500;28;20037;-53
2021/08/10 00:08:52;;;;;;;2.75;1.48;;;;;;;;;;5054430;28;20340;-53
2021/08/10 00:11:19;;;;;;;4.40;1.60;;;;;;;;;;5053866;28;20039;-53
2021/08/10 00:13:45;;;;;;;2.50;1.65;;;;;;;;;;5054451;28;20032;-53
2021/08/10 00:16:11;;;;;;;4.95;1.90;;;;;;;;;;5054411;28;20033;-53
2021/08/10 00:18:37;;;;;;;4.70;1.70;;;;;;;;;;5054225;28;20029;-53
2021/08/10 00:21:03;;;;;;;2.10;1.60;;;;;;;;;;5053458;28;20032;-53
2021/08/10 00:23:29;;;;;;;2.28;1.40;;;;;;;;;;5054192;28;20025;-53
2021/08/10 00:25:55;;;;;;;2.58;1.70;;;;;;;;;;5054040;28;20454;-53
2021/08/10 00:28:21;;;;;;;5.35;2.05;;;;;;;;;;5054505;28;20025;-53
2021/08/10 00:30:47;;;;;;;2.70;1.88;;;;;;;;;;5053138;28;20044;-53
2021/08/10 00:33:14;;;;;;;2.90;1.48;;;;;;;;;;5053370;28;20514;-52
2021/08/10 00:35:40;;;;;;;2.97;1.73;;;;;;;;;;5054231;28;20017;-53
2021/08/10 00:38:06;;;;;;;3.15;1.42;;;;;;;;;;5054017;28;20025;-52
2021/08/10 00:40:33;;;;;;;2.58;1.60;;;;;;;;;;5053474;28;20435;-53
2021/08/10 00:42:59;;;;;;;2.53;1.70;;;;;;;;;;5053833;28;20036;-53
2021/08/10 00:45:25;;;;;;;3.60;1.55;;;;;;;;;;5053677;28;20024;-52
2021/08/10 00:47:51;;;;;;;1.83;1.42;;;;;;;;;;5053890;28;20047;-52
2021/08/10 00:50:17;;;;;;;4.90;1.38;;;;;;;;;;5054004;28;20057;-52
2021/08/10 00:52:43;;;;;;;2.20;1.35;;;;;;;;;;5053216;28;20029;-53
2021/08/10 00:55:09;;;;;;;2.17;1.33;;;;;;;;;;5053522;28;20063;-52
2021/08/10 00:57:35;;;;;;;4.63;1.83;;;;;;;;;;5053661;28;20039;-53
2021/08/10 01:00:02;;;;;;;1.50;1.40;;;;;;;;;;5053443;28;20431;-52
2021/08/10 01:02:28;;;;;;;2.35;1.20;;;;;;;;;;5052475;28;20116;-53
2021/08/10 01:04:54;;;;;;;3.95;1.30;;;;;;;;;;5053721;28;20028;-52
2021/08/10 01:07:39;;;;;;;5.65;1.92;;;;;;;;;;5053323;28;20059;-53
2021/08/10 01:10:14;;;;;;;7.85;1.88;;;;;;;;;;5053408;28;20039;-53
2021/08/10 01:12:43;;;;;;;4.53;1.67;;;;;;;;;;5052130;28;20021;-53
2021/08/10 01:15:20;;;;;;;1.25;1.10;;;;;;;;;;5053712;28;20032;-53
2021/08/10 01:18:03;;;;;;;2.78;1.55;;;;;;;;;;5053259;28;20060;-53
2021/08/10 01:20:47;;;;;;;2.63;1.60;;;;;;;;;;5053170;28;20362;-53
2021/08/10 01:23:15;;;;;;;2.78;1.30;;;;;;;;;;5052437;28;20462;-53
2021/08/10 01:25:56;;;;;;;1.85;1.50;;;;;;;;;;5052849;28;20446;-53
2021/08/10 01:28:34;;;;;;;4.20;1.30;;;;;;;;;;5052978;28;20032;-52
2021/08/10 01:31:06;;;;;;;1.90;1.40;;;;;;;;;;5052325;28;20502;-52
2021/08/10 01:33:44;;;;;;;2.30;1.40;;;;;;;;;;5052382;28;20029;-53
2021/08/10 01:36:11;;;;;;;6.38;2.30;;;;;;;;;;5053171;28;20104;-53
2021/08/10 01:38:39;;;;;;;2.00;1.73;;;;;;;;;;5053259;28;20025;-53
2021/08/10 01:41:05;;;;;;;1.65;1.25;;;;;;;;;;5051992;28;20112;-53
2021/08/10 01:43:32;;;;;;;1.70;1.33;;;;;;;;;;5071609;28;20537;-53
2021/08/10 01:45:59;;;;;;;1.85;1.58;;;;;;;;;;5071377;28;20034;-53
2021/08/10 01:48:26;;;;;;;2.60;1.35;;;;;;;;;;5073163;28;20032;-53
2021/08/10 01:50:53;;;;;;;6.00;2.00;;;;;;;;;;5072202;28;20020;-52
2021/08/10 01:53:19;;;;;;;4.25;1.55;;;;;;;;;;5072699;28;20541;-53
2021/08/10 01:55:45;;;;;;;1.70;1.20;;;;;;;;;;5072364;28;20463;-53
2021/08/10 01:58:12;;;;;;;1.70;1.60;;;;;;;;;;5072763;28;20041;-53
2021/08/10 02:00:39;;;;;;;1.95;1.30;;;;;;;;;;5071951;28;20020;-52
2021/08/10 02:03:07;;;;;;;1.55;1.25;;;;;;;;;;5072446;28;20108;-53
2021/08/10 02:05:33;;;;;;;1.63;1.40;;;;;;;;;;5072623;28;20017;-53
2021/08/10 02:08:00;;;;;;;5.28;1.75;;;;;;;;;;5072159;28;20454;-53
2021/08/10 02:10:27;;;;;;;3.83;1.52;;;;;;;;;;5072852;28;20028;-53
2021/08/10 02:12:53;;;;;;;3.60;1.70;;;;;;;;;;5071428;28;20110;-52
2021/08/10 02:15:19;;;;;;;2.13;1.67;;;;;;;;;;5072537;28;20047;-53
2021/08/10 02:17:45;;;;;;;13.00;1.70;;;;;;;;;;5072724;28;20101;-52
2021/08/10 02:20:13;;;;;;;6.53;1.23;;;;;;;;;;5072804;28;20422;-52
2021/08/10 02:22:40;;;;;;;3.60;1.20;;;;;;;;;;5071530;28;20028;-53
2021/08/10 02:25:09;;;;;;;2.38;1.50;;;;;;;;;;5072589;28;20025;-52
2021/08/10 02:27:35;;;;;;;2.42;1.42;;;;;;;;;;5072037;28;20531;-52
2021/08/10 02:30:09;;;;;;;1.88;1.27;;;;;;;;;;5072268;28;20461;-52
2021/08/10 02:32:35;;;;;;;2.75;1.30;;;;;;;;;;5069215;28;20028;-54
2021/08/10 02:35:01;;;;;;;3.42;1.77;;;;;;;;;;5066347;28;20063;-53
2021/08/10 02:37:29;;;;;;;3.45;1.10;;;;;;;;;;5052299;28;20427;-53
2021/08/10 02:39:57;;;;;;;2.92;1.67;;;;;;;;;;5052626;28;20083;-52
2021/08/10 02:42:24;;;;;;;3.25;1.40;;;;;;;;;;5051229;28;20354;-52
2021/08/10 02:44:51;;;;;;;3.03;1.33;;;;;;;;;;5051988;28;20025;-52
2021/08/10 02:47:17;;;;;;;4.18;1.27;;;;;;;;;;5051736;28;20037;-53
2021/08/10 02:49:43;;;;;;;6.00;1.42;;;;;;;;;;5052223;28;20021;-53
2021/08/10 02:52:10;;;;;;;2.05;1.25;;;;;;;;;;5051446;28;20029;-53
2021/08/10 02:54:37;;;;;;;3.90;1.40;;;;;;;;;;5051616;28;20059;-52
2021/08/10 02:57:09;;;;;;;2.88;1.50;;;;;;;;;;5073706;28;20036;-53
2021/08/10 02:59:41;;;;;;;1.45;1.23;;;;;;;;;;5075786;28;20158;-52
2021/08/10 03:02:08;;;;;;;1.63;1.27;;;;;;;;;;5075302;28;20025;-52
2021/08/10 03:04:35;;;;;;;3.17;1.83;;;;;;;;;;5075702;28;20165;-52
2021/08/10 03:07:02;;;;;;;1.67;1.17;;;;;;;;;;5075736;28;20123;-52
2021/08/10 03:09:28;;;;;;;3.17;1.17;;;;;;;;;;5075320;28;20024;-53
2021/08/10 03:11:58;;;;;;;4.72;1.80;;;;;;;;;;5075019;28;20027;-53
2021/08/10 03:14:25;;;;;;;2.90;1.40;;;;;;;;;;5075403;28;20104;-53
2021/08/10 03:16:52;;;;;;;2.67;1.50;;;;;;;;;;5075352;28;20353;-53
2021/08/10 03:19:19;;;;;;;3.17;1.60;;;;;;;;;;5075595;28;20027;-53
2021/08/10 03:21:45;;;;;;;6.15;1.13;;;;;;;;;;5074583;28;20039;-52
2021/08/10 03:24:13;;;;;;;3.47;1.60;;;;;;;;;;5075256;28;20073;-52
2021/08/10 03:26:41;;;;;;;7.00;1.42;;;;;;;;;;5075461;28;20040;-52
2021/08/10 03:29:07;;;;;;;1.00;0.90;;;;;;;;;;5075232;28;20048;-53
2021/08/10 03:31:33;;;;;;;4.22;1.45;;;;;;;;;;5074083;28;20025;-53
2021/08/10 03:33:59;;;;;;;5.10;1.60;;;;;;;;;;5075546;28;20020;-53
2021/08/10 03:36:26;;;;;;;3.10;1.27;;;;;;;;;;5074872;28;20036;-53
2021/08/10 03:38:55;;;;;;;8.25;1.63;;;;;;;;;;5075072;28;20029;-53
2021/08/10 03:41:23;;;;;;;3.05;1.70;;;;;;;;;;5074190;28;20028;-53
2021/08/10 03:43:49;;;;;;;5.10;1.38;;;;;;;;;;5074643;28;20028;-52
2021/08/10 03:46:15;;;;;;;4.63;1.65;;;;;;;;;;5074454;28;20028;-52
2021/08/10 03:48:42;;;;;;;2.30;1.50;;;;;;;;;;5075072;28;20074;-53
2021/08/10 03:51:10;;;;;;;1.05;1.05;;;;;;;;;;5073988;28;20082;-53
2021/08/10 03:53:36;;;;;;;2.88;1.38;;;;;;;;;;5074940;28;20442;-52
2021/08/10 03:56:03;;;;;;;2.28;1.52;;;;;;;;;;5074196;28;20024;-52
2021/08/10 03:58:32;;;;;;;3.10;1.50;;;;;;;;;;5074251;28;20024;-53
2021/08/10 04:01:00;;;;;;;2.17;1.35;;;;;;;;;;5073709;28;20024;-53
2021/08/10 04:03:30;;;;;;;1.98;1.35;;;;;;;;;;5074530;28;20032;-53
2021/08/10 04:05:56;;;;;;;;;;;;;;;;;;5074676;28;20032;-53
2021/08/10 04:08:22;;;;;;;4.35;1.50;;;;;;;;;;5073649;28;19969;-53
2021/08/10 04:10:49;;;;;;;1.83;1.25;;;;;;;;;;5073447;28;20422;-53
2021/08/10 04:13:15;;;;;;;2.70;1.50;;;;;;;;;;5074261;28;20028;-53
2021/08/10 04:15:45;;;;;;;2.17;1.58;;;;;;;;;;5073672;28;20036;-52
2021/08/10 04:18:13;;;;;;;3.70;1.70;;;;;;;;;;5074020;28;20029;-53
2021/08/10 04:20:39;;;;;;;1.85;1.30;;;;;;;;;;5073036;28;20054;-52
2021/08/10 04:23:06;;;;;;;5.45;1.38;;;;;;;;;;5073887;28;20127;-53
2021/08/10 04:25:32;;;;;;;1.83;1.17;;;;;;;;;;5073521;28;20020;-53
2021/08/10 04:27:58;;;;;;;4.45;2.20;;;;;;;;;;5073949;28;20039;-53
2021/08/10 04:30:24;;;;;;;1.65;1.35;;;;;;;;;;5074131;28;20020;-53
2021/08/10 04:32:50;;;;;;;8.43;1.35;;;;;;;;;;5067001;28;20087;-53
2021/08/10 04:35:16;;;;;;;2.00;1.63;;;;;;;;;;5067214;28;20025;-53
2021/08/10 04:37:42;;;;;;;3.65;1.70;;;;;;;;;;5074280;28;20025;-53
2021/08/10 04:40:09;;;;;;;3.75;1.75;;;;;;;;;;5073501;28;20366;-53
2021/08/10 04:42:35;;;;;;;2.53;1.60;;;;;;;;;;5067872;28;20028;-53
2021/08/10 04:45:01;;;;;;;2.70;1.70;;;;;;;;;;5074220;28;20575;-53
2021/08/10 04:47:27;;;;;;;2.75;1.52;;;;;;;;;;5073520;28;20507;-53
2021/08/10 04:49:53;;;;;;;2.95;2.00;;;;;;;;;;5073320;28;20020;-52
2021/08/10 04:52:21;;;;;;;4.18;1.98;;;;;;;;;;5072940;28;20135;-52
2021/08/10 04:54:47;;;;;;;4.07;1.73;;;;;;;;;;5073512;28;20021;-53
2021/08/10 04:57:13;;;;;;;12.80;1.90;;;;;;;;;;5073866;28;20024;-53
2021/08/10 04:59:39;;;;;;;2.85;1.40;;;;;;;;;;5073735;28;20020;-53
2021/08/10 05:02:05;;;;;;;2.92;1.70;;;;;;;;;;5072500;28;20441;-53
2021/08/10 05:04:31;;;;;;;4.68;1.90;;;;;;;;;;5073544;28;20067;-53
2021/08/10 05:06:57;;;;;;;2.80;1.73;;;;;;;;;;5073262;28;20064;-53
2021/08/10 05:09:23;;;;;;;1.70;1.40;;;;;;;;;;5073610;28;20021;-52
2021/08/10 05:11:49;;;;;;;3.20;1.67;;;;;;;;;;5072053;28;20406;-53
2021/08/10 05:14:15;;;;;;;4.50;1.70;;;;;;;;;;4957034;28;20031;-53
2021/08/10 05:16:41;;;;;;;3.50;1.70;;;;;;;;;;5073064;28;20021;-53
2021/08/10 05:19:07;;;;;;;6.13;2.50;;;;;;;;;;5071821;28;20524;-52
2021/08/10 05:21:33;;;;;;;3.08;1.40;;;;;;;;;;5072343;28;20056;-53
2021/08/10 05:23:59;;;;;;;2.67;1.77;;;;;;;;;;5072710;28;20021;-53
2021/08/10 05:26:25;;;;;;;2.30;1.50;;;;;;;;;;5072846;28;20062;-53
2021/08/10 05:28:51;;;;;;;2.95;1.60;;;;;;;;;;5073273;28;20024;-53
2021/08/10 05:31:17;;;;;;;3.15;2.13;;;;;;;;;;5072476;28;20024;-53
2021/08/10 05:33:43;;;;;;;3.10;1.80;;;;;;;;;;5073214;28;20017;-53
2021/08/10 05:36:09;;;;;;;2.17;1.50;;;;;;;;;;5058156;28;20028;-53
2021/08/10 05:38:35;;;;;;;7.15;1.80;;;;;;;;;;5052379;28;20033;-53
2021/08/10 05:41:01;;;;;;;5.15;1.80;;;;;;;;;;5052223;28;20095;-53
2021/08/10 05:43:27;;;;;;;3.63;1.60;;;;;;;;;;5053196;28;20053;-53
2021/08/10 05:45:53;;;;;;;2.10;1.48;;;;;;;;;;5053049;28;20452;-53
2021/08/10 05:48:19;;;;;;;1.58;1.45;;;;;;;;;;5052467;28;20044;-53
2021/08/10 05:50:46;;;;;;;2.35;1.40;;;;;;;;;;5052199;28;20068;-53
2021/08/10 05:53:12;;;;;;;3.13;1.77;;;;;;;;;;5052186;28;20056;-53
2021/08/10 05:55:38;;;;;;;2.58;1.75;;;;;;;;;;5052929;28;20328;-53
2021/08/10 05:58:04;;;;;;;3.42;1.60;;;;;;;;;;5052705;28;20032;-52
2021/08/10 06:00:30;;;;;;;1.42;1.13;;;;;;;;;;5052181;28;20029;-52
2021/08/10 06:02:56;;;;;;;2.63;1.75;;;;;;;;;;5052106;28;20415;-53
2021/08/10 06:05:22;;;;;;;6.53;1.30;;;;;;;;;;5052903;28;20025;-53
2021/08/10 06:07:48;;;;;;;3.10;1.85;;;;;;;;;;5051984;28;20351;-53
2021/08/10 06:10:14;;;;;;;1.88;1.38;;;;;;;;;;5052746;28;20029;-53
2021/08/10 06:12:40;;;;;;;6.38;1.80;;;;;;;;;;5051846;28;20033;-53
2021/08/10 06:15:06;;;;;;;2.38;1.63;;;;;;;;;;5052838;28;20021;-52
2021/08/10 06:17:32;;;;;;;4.30;2.40;;;;;;;;;;5052414;28;20025;-53
2021/08/10 06:19:58;;;;;;;4.88;1.95;;;;;;;;;;5052723;28;20024;-52
2021/08/10 06:22:25;;;;;;;5.65;2.28;;;;;;;;;;5051138;28;20481;-53
2021/08/10 06:24:51;;;;;;;4.82;2.10;;;;;;;;;;5052307;28;20446;-52
2021/08/10 06:27:17;;;;;;;3.33;2.05;;;;;;;;;;5052405;28;20040;-53
2021/08/10 06:29:42;;;;;;;4.38;2.30;;;;;;;;;;5052843;28;20017;-52
2021/08/10 06:32:09;;;;;;;4.60;3.05;;;;;;;;;;5053299;28;20028;-53
2021/08/10 06:34:35;;;;;;;3.83;1.92;;;;;;;;;;5056337;28;20044;-53
2021/08/10 06:37:01;;;;;;;7.40;2.63;;;;;;;;;;5056246;28;20064;-52
2021/08/10 06:39:27;;;;;;;9.30;2.33;;;;;;;;;;5056212;28;20110;-53
2021/08/10 06:41:53;;;;;;;6.88;2.13;;;;;;;;;;5055523;28;20029;-53
2021/08/10 06:44:19;;;;;;;6.82;2.38;;;;;;;;;;5056383;28;20028;-52
2021/08/10 06:46:45;;;;;;;6.30;2.17;;;;;;;;;;5055650;28;20354;-53
2021/08/10 06:49:11;;;;;;;6.43;2.17;;;;;;;;;;5056234;28;20025;-53
2021/08/10 06:51:37;;;;;;;4.18;2.20;;;;;;;;;;5055061;28;20080;-53
2021/08/10 06:54:03;;;;;;;2.95;1.95;;;;;;;;;;5056291;28;20024;-53
2021/08/10 06:56:29;;;;;;;3.78;1.92;;;;;;;;;;5055575;28;20017;-53
2021/08/10 06:58:55;;;;;;;3.03;2.10;;;;;;;;;;5056191;28;20149;-52
2021/08/10 07:01:21;;;;;;;6.63;2.05;;;;;;;;;;5055248;28;20021;-53
2021/08/10 07:03:47;;;;;;;4.40;2.00;;;;;;;;;;5056096;28;20508;-52
2021/08/10 07:06:13;;;;;;;2.60;2.03;;;;;;;;;;5055432;28;20029;-53
2021/08/10 07:08:39;;;;;;;2.85;1.67;;;;;;;;;;5055933;28;20060;-52
2021/08/10 07:11:05;;;;;;;4.45;1.90;;;;;;;;;;5055411;28;20025;-53
2021/08/10 07:13:31;;;;;;;2.17;1.40;;;;;;;;;;5055797;28;20139;-53
2021/08/10 07:15:57;;;;;;;5.68;3.13;;;;;;;;;;5055426;28;20025;-53
2021/08/10 07:18:23;;;;;;;3.42;1.90;;;;;;;;;;5055331;28;20033;-53
2021/08/10 07:20:49;;;;;;;4.20;2.42;;;;;;;;;;5054873;28;20032;-52
2021/08/10 07:23:15;;;;;;;5.30;2.00;;;;;;;;;;5055127;28;20033;-53
2021/08/10 07:25:41;;;;;;;4.28;2.35;;;;;;;;;;5055727;28;20067;-53
2021/08/10 07:28:07;;;;;;;2.88;1.80;;;;;;;;;;5055436;28;20370;-53
2021/08/10 07:30:33;;;;;;;3.85;2.08;;;;;;;;;;5054621;28;20033;-53
2021/08/10 07:32:59;;;;;;;10.98;2.63;;;;;;;;;;5054927;28;20166;-53
2021/08/10 07:35:25;;;;;;;3.75;1.60;;;;;;;;;;5055025;28;20043;-53
2021/08/10 07:37:51;;;;;;;8.48;2.08;;;;;;;;;;5054939;28;20362;-52
2021/08/10 07:40:17;;;;;;;3.40;2.28;;;;;;;;;;5055542;28;20021;-53
2021/08/10 07:42:43;;;;;;;3.90;2.13;;;;;;;;;;5054180;28;20413;-53
2021/08/10 07:45:10;;;;;;;2.83;1.90;;;;;;;;;;5054973;28;20025;-53
2021/08/10 07:47:36;;;;;;;2.60;1.67;;;;;;;;;;5054870;28;20052;-53
2021/08/10 07:50:02;;;;;;;5.35;2.40;;;;;;;;;;5054596;28;20032;-52
2021/08/10 07:52:28;;;;;;;4.50;2.33;;;;;;;;;;5054106;28;20405;-53
2021/08/10 07:54:54;;;;;;;8.13;2.50;;;;;;;;;;5055009;28;20025;-53
2021/08/10 07:57:20;;;;;;;4.72;2.25;;;;;;;;;;5054746;28;20029;-53
2021/08/10 07:59:46;;;;;;;6.65;2.17;;;;;;;;;;5055085;28;20500;-53
2021/08/10 08:02:12;;;;;;;2.35;1.80;;;;;;;;;;5053845;28;20257;-53
2021/08/10 08:04:38;;;;;;;4.20;2.05;;;;;;;;;;5054747;28;20040;-53
2021/08/10 08:07:04;;;;;;;14.77;2.20;;;;;;;;;;5053107;28;20119;-53
2021/08/10 08:09:30;;;;;;;4.32;2.50;;;;;;;;;;5054625;28;20036;-53
2021/08/10 08:11:56;;;;;;;5.38;2.88;;;;;;;;;;5053729;28;20032;-53
2021/08/10 08:14:23;;;;;;;2.03;1.48;;;;;;;;;;5054460;28;20065;-52
2021/08/10 08:16:49;;;;;;;4.78;1.73;;;;;;;;;;5054515;28;20025;-53
2021/08/10 08:19:15;;;;;;;6.38;2.88;;;;;;;;;;5054470;28;20037;-52
2021/08/10 08:21:41;;;;;;;9.20;2.72;;;;;;;;;;5053501;28;20136;-53
2021/08/10 08:24:07;;;;;;;3.92;2.40;;;;;;;;;;5054658;28;20021;-52
2021/08/10 08:26:33;;;;;;;6.53;2.42;;;;;;;;;;5054186;28;20037;-52
2021/08/10 08:28:59;;;;;;;3.42;2.13;;;;;;;;;;5053984;28;20017;-53
2021/08/10 08:31:26;;;;;;;4.63;2.63;;;;;;;;;;5052347;28;20250;-52
2021/08/10 08:33:52;;;;;;;5.28;2.60;;;;;;;;;;5054318;28;20017;-53
2021/08/10 08:36:18;;;;;;;5.47;2.67;;;;;;;;;;5053995;28;20036;-53
2021/08/10 08:38:44;;;;;;;8.50;2.50;;;;;;;;;;5054308;28;20025;-52
2021/08/10 08:41:11;;;;;;;3.35;2.40;;;;;;;;;;5053323;28;20178;-53
2021/08/10 08:43:40;;;;;;;9.77;2.78;;;;;;;;;;5053122;28;20049;-53
2021/08/10 08:46:06;;;;;;;4.97;2.10;;;;;;;;;;5053944;28;20481;-53
2021/08/10 08:48:33;;;;;;;7.70;2.80;;;;;;;;;;5053835;28;20116;-53
2021/08/10 08:51:01;;;;;;;4.13;2.28;;;;;;;;;;5053306;28;20442;-53
2021/08/10 08:53:27;;;;;;;3.60;2.42;;;;;;;;;;5053429;28;20401;-53
2021/08/10 08:55:53;;;;;;;7.32;2.78;;;;;;;;;;5053410;28;20104;-53
2021/08/10 08:58:20;;;;;;;4.85;3.13;;;;;;;;;;5053108;28;20048;-52
2021/08/10 09:00:46;;;;;;;9.48;2.58;;;;;;;;;;5053295;28;20458;-53
2021/08/10 09:03:12;;;;;;;7.07;2.65;;;;;;;;;;5053647;28;20032;-53
2021/08/10 09:05:41;;;;;;;4.68;2.40;;;;;;;;;;5053882;28;20021;-52
2021/08/10 09:08:29;;;;;;;8.77;2.40;;;;;;;;;;5053292;28;20078;-53
2021/08/10 09:10:58;;;;;;;6.05;1.75;;;;;;;;;;5052890;28;20024;-53
2021/08/10 09:13:24;;;;;;;3.38;2.08;;;;;;;;;;5053451;28;20106;-53
2021/08/10 09:15:50;;;;;;;3.65;2.20;;;;;;;;;;5053460;28;20049;-53
2021/08/10 09:18:18;;;;;;;3.97;2.05;;;;;;;;;;5053667;28;20032;-53
2021/08/10 09:21:03;;;;;;;4.03;2.47;;;;;;;;;;5052789;28;20172;-53
2021/08/10 09:23:35;;;;;;;5.55;2.80;;;;;;;;;;5053005;28;20119;-53
2021/08/10 09:26:01;;;;;;;5.85;2.10;;;;;;;;;;5052949;28;20021;-52
2021/08/10 09:28:32;;;;;;;4.82;2.08;;;;;;;;;;5053218;28;20532;-52
2021/08/10 09:31:18;;;;;;;6.82;2.03;;;;;;;;;;5052120;28;20024;-53
2021/08/10 09:33:44;;;;;;;3.78;2.40;;;;;;;;;;5052642;28;20036;-53
2021/08/10 09:36:22;;;;;;;2.97;1.50;;;;;;;;;;5053221;28;20028;-53
2021/08/10 09:38:48;;;;;;;3.90;2.17;;;;;;;;;;5052670;28;20342;-53
2021/08/10 09:41:15;;;;;;;8.02;1.92;;;;;;;;;;5052241;28;20031;-53
2021/08/10 09:43:41;;;;;;;7.10;2.17;;;;;;;;;;5053059;28;20059;-53
2021/08/10 09:46:08;;;;;;;3.33;2.35;;;;;;;;;;5052606;28;20058;-53
2021/08/10 09:48:34;;;;;;;3.05;2.08;;;;;;;;;;5053134;28;20028;-53
2021/08/10 09:51:07;;;;;;;7.78;2.20;;;;;;;;;;5051985;28;20397;-53
2021/08/10 09:53:34;;;;;;;3.28;1.65;;;;;;;;;;5052643;28;20037;-53
2021/08/10 09:56:00;;;;;;;4.40;1.88;;;;;;;;;;5052930;28;20052;-54
2021/08/10 09:58:26;;;;;;;5.85;2.38;;;;;;;;;;5052811;28;20354;-53
2021/08/10 10:00:52;;;;;;;3.03;2.08;;;;;;;;;;5051925;28;20025;-53
2021/08/10 10:03:31;;;;;;;4.07;2.10;;;;;;;;;;5052887;28;20025;-53
2021/08/10 10:05:57;;;;;;;2.92;1.63;;;;;;;;;;5051932;28;20021;-53
2021/08/10 10:08:24;;;;;;;5.22;1.40;;;;;;;;;;5052548;28;20025;-52
2021/08/10 10:10:51;;;;;;;5.45;1.70;;;;;;;;;;5051594;28;20102;-53
2021/08/10 10:13:18;;;;;;;1.60;1.50;;;;;;;;;;5052540;28;20047;-53
2021/08/10 10:15:45;;;;;;;5.32;2.05;;;;;;;;;;5052581;28;20018;-52
2021/08/10 10:18:12;;;;;;;3.40;2.00;;;;;;;;;;5052799;28;20031;-53
2021/08/10 10:20:41;;;;;;;2.80;1.15;;;;;;;;;;5051887;28;20150;-53
2021/08/10 10:23:08;;;;;;;2.63;1.60;;;;;;;;;;5052447;28;20082;-53
2021/08/10 10:25:34;;;;;;;3.20;1.50;;;;;;;;;;5052135;28;20040;-53
2021/08/10 10:28:00;;;;;;;3.88;1.60;;;;;;;;;;5051956;28;20374;-53
2021/08/10 10:30:27;;;;;;;7.60;2.13;;;;;;;;;;5052402;28;20021;-53
2021/08/10 10:32:53;;;;;;;1.77;1.40;;;;;;;;;;5051601;28;20108;-53
2021/08/10 10:35:20;;;;;;;5.13;2.22;;;;;;;;;;5052419;28;20475;-53
2021/08/10 10:37:46;;;;;;;5.00;1.75;;;;;;;;;;5052532;28;20033;-52
2021/08/10 10:40:13;;;;;;;2.03;1.60;;;;;;;;;;5052011;28;20060;-53
2021/08/10 10:42:39;;;;;;;3.30;1.77;;;;;;;;;;5052014;28;20028;-52
2021/08/10 10:45:06;;;;;;;7.95;2.20;;;;;;;;;;5052510;28;20032;-53
2021/08/10 10:47:38;;;;;;;4.03;1.42;;;;;;;;;;5052115;28;20481;-53
2021/08/10 10:50:05;;;;;;;2.78;1.95;;;;;;;;;;5052032;28;20025;-53
2021/08/10 10:52:32;;;;;;;17.63;1.67;;;;;;;;;;5051501;28;20062;-53
2021/08/10 10:54:59;;;;;;;4.07;1.85;;;;;;;;;;5052065;28;20021;-53
2021/08/10 10:57:31;;;;;;;3.03;1.98;;;;;;;;;;5052481;28;20057;-53
2021/08/10 11:00:06;;;;;;;2.78;1.80;;;;;;;;;;5052178;28;20029;-53
2021/08/10 11:02:33;;;;;;;2.83;1.88;;;;;;;;;;5051183;28;20074;-52
2021/08/10 11:05:08;;;;;;;2.47;1.65;;;;;;;;;;5052287;28;20025;-53
2021/08/10 11:07:36;;;;;;;8.63;1.80;;;;;;;;;;5052279;28;20041;-53
2021/08/10 11:10:02;;;;;;;2.90;1.80;;;;;;;;;;5052030;28;20358;-52
2021/08/10 11:12:47;;;;;;;3.90;1.58;;;;;;;;;;5051442;28;20025;-53
2021/08/10 11:15:14;;;;;;;2.72;1.80;;;;;;;;;;5052018;28;20078;-52
2021/08/10 11:17:41;;;;;;;3.67;1.88;;;;;;;;;;5052952;28;20032;-52
2021/08/10 11:20:27;;;;;;;4.70;1.85;;;;;;;;;;5055293;28;20021;-53
2021/08/10 11:23:12;;;;;;;2.65;1.38;;;;;;;;;;5054723;28;20040;-53
2021/08/10 11:25:37;;;;;;;3.35;1.80;;;;;;;;;;5055460;28;20025;-53
2021/08/10 11:28:23;;;;;;;2.55;1.92;;;;;;;;;;5054834;28;20429;-52
2021/08/10 11:30:49;;;;;;;2.78;1.85;;;;;;;;;;5056213;28;20025;-53
2021/08/10 11:33:34;;;;;;;6.45;2.75;;;;;;;;;;5055840;28;20624;-53
2021/08/10 11:36:12;;;;;;;3.42;2.13;;;;;;;;;;5055262;28;20029;-53
2021/08/10 11:38:58;;;;;;;3.15;1.90;;;;;;;;;;5055105;28;20029;-53
2021/08/10 11:41:24;;;;;;;3.15;1.98;;;;;;;;;;5054065;28;20032;-53
2021/08/10 11:43:53;;;;;;;4.60;2.33;;;;;;;;;;5054768;28;20033;-53
2021/08/10 11:46:19;;;;;;;3.58;1.95;;;;;;;;;;5055347;28;20363;-52
2021/08/10 11:48:49;;;;;;;9.00;2.30;;;;;;;;;;5055290;28;20039;-53
2021/08/10 11:51:25;;;;;;;4.05;1.92;;;;;;;;;;5053491;28;20107;-53
2021/08/10 11:53:52;;;;;;;2.17;1.45;;;;;;;;;;5055293;28;20028;-53
2021/08/10 11:56:30;;;;;;;3.53;1.88;;;;;;;;;;5054677;28;20021;-52
2021/08/10 11:59:00;;;;;;;2.10;1.58;;;;;;;;;;5055118;28;20033;-53
2021/08/10 12:01:26;;;;;;;2.95;1.77;;;;;;;;;;5053522;28;20025;-53
2021/08/10 12:03:53;;;;;;;2.20;1.88;;;;;;;;;;5054804;28;20358;-53
2021/08/10 12:06:28;;;;;;;4.82;1.83;;;;;;;;;;5054703;28;20086;-53
2021/08/10 12:09:04;;;;;;;6.18;2.10;;;;;;;;;;5054693;28;20032;-53
2021/08/10 12:11:30;;;;;;;3.05;1.70;;;;;;;;;;5053999;28;20017;-53
2021/08/10 12:14:07;;;;;;;3.92;1.98;;;;;;;;;;5054453;28;20036;-53
2021/08/10 12:16:33;;;;;;;2.55;1.88;;;;;;;;;;5053910;28;20031;-53
2021/08/10 12:18:59;;;;;;;2.58;2.20;;;;;;;;;;5054483;28;20029;-53
2021/08/10 12:21:29;;;;;;;3.15;2.05;;;;;;;;;;5053755;28;20159;-53
2021/08/10 12:23:55;;;;;;;6.07;2.13;;;;;;;;;;5054765;28;20036;-53
2021/08/10 12:26:22;;;;;;;6.07;2.13;;;;;;;;;;5053915;28;20033;-53
2021/08/10 12:28:55;;;;;;;1.83;1.63;;;;;;;;;;5053010;28;20032;-53
2021/08/10 12:31:21;;;;;;;6.03;2.10;;;;;;;;;;5053662;28;20056;-53
2021/08/10 12:33:51;;;;;;;3.08;2.00;;;;;;;;;;5054346;28;20074;-53
2021/08/10 12:36:17;;;;;;;3.63;2.03;;;;;;;;;;5054246;28;20076;-53
2021/08/10 12:38:44;;;;;;;2.35;1.63;;;;;;;;;;5054206;28;20032;-53
2021/08/10 12:41:10;;;;;;;2.10;1.90;;;;;;;;;;5053003;28;20052;-53
2021/08/10 12:43:36;;;;;;;2.63;1.70;;;;;;;;;;5054040;28;20182;-53
2021/08/10 12:46:21;;;;;;;3.17;2.05;;;;;;;;;;5054012;28;20024;-53
2021/08/10 12:49:01;;;;;;;3.10;2.17;;;;;;;;;;5054044;28;20033;-53
2021/08/10 12:51:27;;;;;;;2.30;1.83;;;;;;;;;;5053008;28;20021;-53
2021/08/10 12:53:54;;;;;;;3.22;2.22;;;;;;;;;;5053534;28;20348;-53
2021/08/10 12:56:32;;;;;;;2.30;1.90;;;;;;;;;;5053606;28;20443;-53
2021/08/10 12:58:58;;;;;;;7.05;2.45;;;;;;;;;;5053831;28;20017;-53
2021/08/10 13:01:24;;;;;;;3.30;1.85;;;;;;;;;;5052743;28;20025;-53
2021/08/10 13:03:51;;;;;;;8.13;1.70;;;;;;;;;;5054004;28;20387;-53
2021/08/10 13:06:24;;;;;;;4.10;2.15;;;;;;;;;;5053000;28;20093;-53
2021/08/10 13:08:54;;;;;;;1.70;1.60;;;;;;;;;;5053874;28;20032;-53
2021/08/10 13:11:20;;;;;;;;;;;;;;;;;;5052869;28;20485;-53
2021/08/10 13:13:46;;;;;;;4.10;1.92;;;;;;;;;;5053324;28;19909;-53
2021/08/10 13:16:12;;;;;;;2.75;2.05;;;;;;;;;;5053414;28;20145;-53
2021/08/10 13:18:38;;;;;;;4.93;2.05;;;;;;;;;;5053174;28;20454;-53
2021/08/10 13:21:05;;;;;;;1.98;1.77;;;;;;;;;;5052563;28;20071;-53
2021/08/10 13:23:32;;;;;;;3.47;1.90;;;;;;;;;;5053013;28;20070;-53
2021/08/10 13:26:11;;;;;;;3.40;2.20;;;;;;;;;;5053043;28;20421;-53
2021/08/10 13:28:38;;;;;;;3.95;2.05;;;;;;;;;;5052954;28;20069;-53
2021/08/10 13:31:07;;;;;;;4.40;2.20;;;;;;;;;;5052105;28;20025;-52
2021/08/10 13:33:33;;;;;;;5.53;2.13;;;;;;;;;;5052846;28;20112;-52
2021/08/10 13:35:59;;;;;;;7.68;2.03;;;;;;;;;;5057065;28;20116;-52
2021/08/10 13:38:25;;;;;;;2.65;1.85;;;;;;;;;;5052703;28;20039;-52
2021/08/10 13:40:53;;;;;;;1.90;1.67;;;;;;;;;;5052000;28;20033;-52
2021/08/10 13:43:19;;;;;;;6.43;2.00;;;;;;;;;;5052726;28;20112;-52
2021/08/10 13:45:45;;;;;;;5.38;1.48;;;;;;;;;;5052921;28;20462;-52
2021/08/10 13:48:12;;;;;;;6.20;2.40;;;;;;;;;;5052552;28;20451;-52
2021/08/10 13:50:39;;;;;;;2.63;1.92;;;;;;;;;;5051985;28;20446;-52
2021/08/10 13:53:05;;;;;;;8.13;2.13;;;;;;;;;;5052730;28;20028;-53
2021/08/10 13:55:32;;;;;;;5.78;2.60;;;;;;;;;;5052870;28;20060;-52
2021/08/10 13:57:59;;;;;;;6.90;2.28;;;;;;;;;;5052446;28;20021;-52
2021/08/10 14:00:25;;;;;;;4.40;2.20;;;;;;;;;;5055629;28;20028;-52
2021/08/10 14:02:51;;;;;;;3.53;2.00;;;;;;;;;;5062919;28;20056;-52
2021/08/10 14:05:17;;;;;;;5.80;2.03;;;;;;;;;;5063383;28;20024;-52
2021/08/10 14:07:43;;;;;;;4.40;1.70;;;;;;;;;;5060389;28;20099;-52
2021/08/10 14:10:10;;;;;;;2.58;1.95;;;;;;;;;;5063058;28;20162;-52
2021/08/10 14:12:36;;;;;;;3.92;2.00;;;;;;;;;;5062024;28;20013;-52
2021/08/10 14:15:03;;;;;;;6.93;2.67;;;;;;;;;;5056666;28;20104;-52
2021/08/10 14:17:29;;;;;;;3.67;2.00;;;;;;;;;;5060201;28;20033;-52
2021/08/10 14:19:55;;;;;;;3.55;2.10;;;;;;;;;;5051958;28;20100;-52
2021/08/10 14:22:20;;;;;;;3.15;1.80;;;;;;;;;;5050265;28;20047;-52
2021/08/10 14:24:46;;;;;;;3.20;2.03;;;;;;;;;;5051414;28;20029;-52
2021/08/10 14:27:13;;;;;;;5.07;2.00;;;;;;;;;;5051755;28;20044;-52
2021/08/10 14:29:39;;;;;;;5.55;2.17;;;;;;;;;;5051665;28;20111;-52
2021/08/10 14:32:06;;;;;;;3.05;1.85;;;;;;;;;;5050859;28;20029;-52
2021/08/10 14:34:32;;;;;;;4.20;2.17;;;;;;;;;;5050009;28;20096;-52
2021/08/10 14:36:58;;;;;;;3.88;2.17;;;;;;;;;;5052234;28;20084;-52
2021/08/10 14:39:24;;;;;;;7.35;2.03;;;;;;;;;;5052734;28;20025;-52
2021/08/10 14:41:50;;;;;;;3.35;1.77;;;;;;;;;;5051374;28;20029;-52
2021/08/10 14:44:16;;;;;;;4.05;1.83;;;;;;;;;;5052456;28;20041;-52
2021/08/10 14:46:45;;;;;;;3.17;1.95;;;;;;;;;;5051968;28;20135;-52